This is the latest recevied weather packets stored in our database for station/object CT2IRJ-11. If no packets are shown the sender has not sent any weather packets the latest 10 day(s).
| Time | Temp. | Humidity | Pressure | Rain* | Wind** | Luminosity | Snow |
|---|---|---|---|---|---|---|---|
| 1777746509 | 19.44° C | 71% | 1014.6 hPa | 0 mm | - | 29 W/m² | - |
| 1777746209 | 19.44° C | 71% | 1014.6 hPa | 0 mm | - | 34 W/m² | - |
| 1777745909 | 19.44° C | 71% | 1014.6 hPa | 0 mm | - | 31 W/m² | - |
| 1777745609 | 19.44° C | 71% | 1014.6 hPa | 0 mm | - | 49 W/m² | - |
| 1777745309 | 19.44° C | 70% | 1014.6 hPa | 0 mm | - | 35 W/m² | - |
| 1777745010 | 20° C | 68% | 1014.6 hPa | 0 mm | - | 42 W/m² | - |
| 1777744710 | 20° C | 68% | 1014.6 hPa | 0 mm | - | 52 W/m² | - |
| 1777744410 | 20° C | 71% | 1014.6 hPa | 0 mm | - | 62 W/m² | - |
| 1777744109 | 20° C | 72% | 1014.6 hPa | 0 mm | - | 69 W/m² | - |
| 1777743809 | 20° C | 72% | 1014.6 hPa | 0 mm | - | 69 W/m² | - |
| 1777743509 | 20° C | 72% | 1014.6 hPa | 0 mm | - | 64 W/m² | - |
| 1777743210 | 20.56° C | 71% | 1014.6 hPa | 0 mm | - | 67 W/m² | - |
| 1777742910 | 20.56° C | 71% | 1014.6 hPa | 0 mm | - | 83 W/m² | - |
| 1777742610 | 20.56° C | 70% | 1014.6 hPa | 0 mm | - | 101 W/m² | - |
| 1777742310 | 20.56° C | 71% | 1014.6 hPa | 0 mm | - | 98 W/m² | - |
| 1777742009 | 21.11° C | 69% | 1014.6 hPa | 0 mm | - | 101 W/m² | - |
| 1777741710 | 22.22° C | 67% | 1014.6 hPa | 0 mm | - | 110 W/m² | - |
| 1777741409 | 21.67° C | 67% | 1014.6 hPa | 0 mm | - | 225 W/m² | - |
| 1777741109 | 21.11° C | 69% | 1014.6 hPa | 0 mm | - | 275 W/m² | - |
| 1777740809 | 20.56° C | 71% | 1014.9 hPa | 0 mm | - | 166 W/m² | - |
| 1777740509 | 21.11° C | 70% | 1014.9 hPa | 0 mm | - | 112 W/m² | - |
| 1777740210 | 21.11° C | 70% | 1014.9 hPa | 0 mm | - | 152 W/m² | - |
| 1777739910 | 20.56° C | 72% | 1014.9 hPa | 0 mm | - | 117 W/m² | - |
| 1777739609 | 20.56° C | 70% | 1014.9 hPa | 0 mm | - | 134 W/m² | - |
| 1777739309 | 20.56° C | 70% | 1014.9 hPa | 0 mm | - | 130 W/m² | - |
* Rain latest hour (hover to see other rain measurements)
** Current wind speed in m/s (hover to see current wind gust speed)